EmailTwitter


Observations de surface / Royaume-Uni / EGLL (03772)

Régions: Québec | Canada | États-Unis | Europe | France | UK | Ailleurs
Station
Affichage
Infos & localisation pour EGLL (03772) | Aide pour décoder les METARs

Observations prises le 2018-07-21 à 20H50 UTC à LONDON/HEATHROW, UK (EGLL)

Température: 22.0 Celsius

Point de rosée: 14.0 Celsius

Humidité relative: 60%

Vents: Ouest-sud-ouest à 19 km/h ou 10 noeuds.

Pression au niveau moyen de la mer: 101.50 kilopascals.

Visibilité horizontale: 6.21 milles terrestres ou 9.94 kilomètres.

Observation METAR:

EGLL 212050Z AUTO 25010KT 9999 NCD 22/14 Q1015 NOSIG=